Wong Chuk Hang, Hong Kong

8:13 PM CST on June 02, 2015 (GMT +0800)
Le Caine Mansion, Mid-Levels | | Change Station
CLOSE
Current Station
Personal Weather Station
Location: 香港, 香港島
Elevation: 312 ft
Nearby Weather Stations

Elev 312 ft 22.28 °N, 114.15 °E | Updated 3 seconds ago

Rain
Rain
85.3 °F
Feels Like 101 °F
N
0.4
Wind Variable Wind from NNE
Gusts 2.5 mph

Today
High -- | Low -- °F
--% Chance of Precip.
Yesterday
High -- | Low -- °F
Precip. -- in
5:38 AM 7:03 PM
Full, 100% visible
Pressure 29.80 in
Visibility 6.2 miles
Clouds Few 1500 ft
Heat Index 101 °F
Dew Point 81 °F
Humidity 86%
Rainfall 0.39 in
Snow Depth Not available.
UV 0.0 out of 12
Pollen Not available.
Air Quality Not available.
Flu Activity Not available.
METAR VHHH 021200Z 18006KT 130V230 9999 FEW015 30/25 Q1009 NOSIG

More Conditions Fewer Conditions

Pressure 29.80 in
Visibility 6.2 miles
Clouds Few 1500 ft
Heat Index 101 °F
Dew Point 81 °F
Humidity 86%
Rainfall 0.39 in
Snow Depth Not available.
UV 0.0 out of 12
Pollen Not available.
Air Quality Not available.
Flu Activity Not available.
METAR VHHH 021200Z 18006KT 130V230 9999 FEW015 30/25 Q1009 NOSIG

More Conditions Fewer Conditions

10-Day Weather Forecast

Almanac

Astronomy

Jun. 02, 2015 Rise Set
Actual Time
Civil Twilight
Nautical Twilight
Astronomical Twilight
Moon
Length of Visible Light
Length of Day
Tomorrow will be .
, % of the Moon is Illuminated

Today's Extremes

Country Highs Country Lows

Community

WunderPhotos

Upload Photos

1,825,879 photos uploaded!

WunderBlogs® & News

Nearby

Air Quality

  Air Quality AQ Index Pollutant
Not available.

Snow Depth

Station Depth Elevation

Earthquake Activity

City Distance Mag. Time & Date
Minimum magnitude displayed is 2.5.

Coastal Water Temperatures

Place Temperature

Stations

Nearby Weather Stations

Station Location Temp. Windchill Dew Point Humidity Wind Precip. Elev Updated Type